Time;durP1;ratioP1;P1;durP2;ratioP2;P2;SDS_P1;SDS_P2;PMS_P1;PMS_P2;Temp;Humidity;BMP_temperature;BMP_pressure;BME280_temperature;BME280_humidity;BME280_pressure;Samples;Min_cycle;Max_cycle;Signal;HPM_P1;HPM_P2
2023/09/04 00:00:50;;;;;;;2.72;2.50;;;;;;;26.32;45.93;99250.47;2056261;28;20665;-52
2023/09/04 00:01:52;;;;;;;2.33;2.13;;;;;;;26.32;45.78;99247.75;2054200;28;20089;-51
2023/09/04 00:02:53;;;;;;;4.18;2.33;;;;;;;26.41;45.57;99249.03;2055347;28;20133;-52
2023/09/04 00:03:55;;;;;;;4.95;3.10;;;;;;;26.41;45.11;99249.88;2055984;28;20042;-50
2023/09/04 00:04:56;;;;;;;2.97;1.98;;;;;;;26.41;45.21;99247.16;2054386;28;20894;-49
2023/09/04 00:05:58;;;;;;;4.35;2.30;;;;;;;26.37;45.64;99243.25;2056351;28;20058;-51
2023/09/04 00:06:58;;;;;;;4.47;2.05;;;;;;;26.42;45.79;99245.25;2054757;28;20054;-52
2023/09/04 00:08:01;;;;;;;4.53;2.13;;;;;;;26.44;45.83;99248.53;2056105;28;20328;-50
2023/09/04 00:09:02;;;;;;;4.55;1.95;;;;;;;26.44;45.46;99243.97;2054035;28;20296;-50
2023/09/04 00:10:06;;;;;;;3.20;2.30;;;;;;;26.46;45.66;99240.97;2056686;28;20325;-50
2023/09/04 00:11:07;;;;;;;5.18;3.10;;;;;;;26.42;45.42;99240.66;2055702;28;20066;-50
2023/09/04 00:12:09;;;;;;;3.65;2.85;;;;;;;26.45;45.32;99245.59;2057387;28;20053;-51
2023/09/04 00:13:10;;;;;;;3.33;2.28;;;;;;;26.42;45.46;99245.25;2056685;28;20093;-53
2023/09/04 00:14:14;;;;;;;4.97;2.08;;;;;;;26.35;45.67;99239.94;2056156;28;20050;-50
2023/09/04 00:15:15;;;;;;;5.53;2.08;;;;;;;26.37;45.49;99237.00;2056327;28;20560;-50
2023/09/04 00:16:17;;;;;;;4.55;1.95;;;;;;;26.31;45.59;99236.06;2056740;28;20101;-51
2023/09/04 00:17:18;;;;;;;4.03;2.33;;;;;;;26.31;45.56;99233.34;2056414;28;20298;-53
2023/09/04 00:18:20;;;;;;;5.03;3.03;;;;;;;26.29;45.99;99235.47;2055304;28;20044;-54
2023/09/04 00:19:20;;;;;;;4.93;1.80;;;;;;;26.27;45.67;99232.16;2056035;28;20181;-50
2023/09/04 00:20:23;;;;;;;5.88;2.85;;;;;;;26.27;45.62;99234.88;2055265;28;20408;-52
2023/09/04 00:21:26;;;;;;;5.90;2.72;;;;;;;26.27;45.58;99240.31;2054537;28;20050;-51
2023/09/04 00:22:27;;;;;;;3.03;2.30;;;;;;;26.25;45.85;99232.41;2057015;28;20043;-52
2023/09/04 00:23:28;;;;;;;2.67;1.80;;;;;;;26.25;45.88;99242.47;2053537;28;20195;-50
2023/09/04 00:24:30;;;;;;;2.53;1.73;;;;;;;26.27;45.94;99235.72;2056203;28;20061;-49
2023/09/04 00:25:33;;;;;;;5.95;2.22;;;;;;;26.27;45.51;99237.59;2055161;28;20074;-50
2023/09/04 00:26:33;;;;;;;3.38;2.20;;;;;;;26.26;45.64;99233.22;2056027;28;20054;-51
2023/09/04 00:27:35;;;;;;;3.22;1.88;;;;;;;26.25;45.58;99234.31;2058170;28;20308;-50
2023/09/04 00:28:36;;;;;;;4.55;2.60;;;;;;;26.24;45.61;99238.94;2056866;28;20050;-49
2023/09/04 00:29:38;;;;;;;3.00;2.33;;;;;;;26.23;45.68;99239.16;2056179;28;20050;-53
2023/09/04 00:30:39;;;;;;;4.43;2.60;;;;;;;26.28;45.66;99236.53;2055925;28;20148;-50
2023/09/04 00:31:41;;;;;;;3.65;2.70;;;;;;;26.30;45.88;99245.28;2056646;28;20050;-52
2023/09/04 00:32:42;;;;;;;3.15;2.00;;;;;;;26.27;46.05;99240.31;2056906;28;20574;-49
2023/09/04 00:33:44;;;;;;;3.45;2.72;;;;;;;26.25;45.93;99246.00;2056366;28;20046;-50
2023/09/04 00:34:45;;;;;;;2.88;2.13;;;;;;;26.24;45.83;99240.78;2056607;28;20428;-53
2023/09/04 00:35:47;;;;;;;4.28;2.40;;;;;;;26.24;45.92;99243.50;2053856;28;21184;-49
2023/09/04 00:36:48;;;;;;;4.30;2.28;;;;;;;26.23;46.04;99241.88;2055451;28;20062;-53
2023/09/04 00:37:50;;;;;;;3.78;1.90;;;;;;;26.23;45.88;99242.69;2054694;28;20085;-49
2023/09/04 00:38:51;;;;;;;5.35;2.42;;;;;;;26.25;46.01;99237.84;2054789;28;20054;-50
2023/09/04 00:39:53;;;;;;;7.97;2.28;;;;;;;26.33;45.32;99242.09;2055690;28;20042;-53
2023/09/04 00:40:55;;;;;;;3.72;2.08;;;;;;;26.38;45.48;99234.03;2054843;28;20590;-49
2023/09/04 00:41:57;;;;;;;3.17;1.90;;;;;;;26.41;45.53;99238.16;2054571;28;20151;-49
2023/09/04 00:42:58;;;;;;;3.65;2.78;;;;;;;26.42;45.19;99237.09;2055704;28;20073;-51
2023/09/04 00:43:59;;;;;;;4.00;2.63;;;;;;;26.41;45.40;99236.28;2055126;28;20054;-52
2023/09/04 00:45:01;;;;;;;6.15;2.92;;;;;;;26.41;45.18;99240.88;2055257;28;20054;-54
2023/09/04 00:46:03;;;;;;;6.57;2.63;;;;;;;26.38;45.73;99239.47;2056478;28;20133;-49
2023/09/04 00:47:04;;;;;;;7.28;2.80;;;;;;;26.40;45.43;99236.50;2054229;28;20058;-52
2023/09/04 00:48:06;;;;;;;3.60;2.10;;;;;;;26.44;45.40;99237.66;2057117;28;20095;-50
2023/09/04 00:49:08;;;;;;;6.78;2.38;;;;;;;26.45;45.30;99234.72;2057923;28;20047;-49
2023/09/04 00:50:16;;;;;;;4.63;2.67;;;;;;;26.46;45.52;99236.38;2053089;28;20114;-48
2023/09/04 00:51:18;;;;;;;2.67;2.22;;;;;;;26.45;45.42;99232.00;2056244;28;20043;-52
2023/09/04 00:52:20;;;;;;;3.22;2.05;;;;;;;26.45;45.15;99240.16;2053982;28;20113;-52
2023/09/04 00:53:21;;;;;;;3.83;2.28;;;;;;;26.46;45.54;99236.38;2055133;28;20081;-58
2023/09/04 00:54:24;;;;;;;3.95;2.38;;;;;;;26.49;45.37;99230.47;2054756;28;20053;-53
2023/09/04 00:55:25;;;;;;;2.97;2.67;;;;;;;26.47;45.43;99226.34;2055589;28;20057;-50
2023/09/04 00:56:29;;;;;;;4.93;3.10;;;;;;;26.49;45.52;99229.63;2054756;28;20051;-53
2023/09/04 00:57:30;;;;;;;2.97;2.25;;;;;;;26.48;45.42;99239.69;2052985;28;20058;-51
2023/09/04 00:58:33;;;;;;;2.25;2.03;;;;;;;26.46;45.61;99233.66;2055069;28;20105;-52
2023/09/04 00:59:35;;;;;;;3.95;2.90;;;;;;;26.46;45.46;99230.91;2055324;28;20077;-52
2023/09/04 01:00:38;;;;;;;3.88;2.33;;;;;;;26.46;45.35;99236.38;2055100;28;20498;-54
2023/09/04 01:01:39;;;;;;;3.47;2.28;;;;;;;26.46;45.44;99230.91;2054239;28;20047;-52
2023/09/04 01:02:42;;;;;;;3.55;2.40;;;;;;;26.47;45.65;99224.44;2055620;28;20739;-51
2023/09/04 01:03:42;;;;;;;3.63;2.10;;;;;;;26.45;45.71;99240.16;2057256;28;20053;-51
2023/09/04 01:04:44;;;;;;;5.18;2.40;;;;;;;26.44;45.46;99238.53;2055202;28;20054;-52
2023/09/04 01:05:45;;;;;;;4.75;2.60;;;;;;;26.42;45.38;99237.94;2054538;28;20046;-50
2023/09/04 01:06:47;;;;;;;2.53;2.22;;;;;;;26.45;45.66;99233.91;2054701;28;20047;-49
2023/09/04 01:07:48;;;;;;;2.75;1.95;;;;;;;26.42;45.85;99235.22;2056650;28;20053;-53
2023/09/04 01:08:50;;;;;;;2.35;1.95;;;;;;;26.45;45.30;99239.34;2054758;28;20635;-50
2023/09/04 01:09:51;;;;;;;6.60;2.33;;;;;;;26.44;45.43;99235.81;2055907;28;20042;-51
2023/09/04 01:11:02;;;;;;;5.38;2.50;;;;;;;26.41;45.26;99233.56;2054791;28;20054;-49
2023/09/04 01:12:10;;;;;;;2.60;2.20;;;;;;;26.41;45.58;99230.00;2056570;28;20042;-50
2023/09/04 01:13:17;;;;;;;5.15;2.30;;;;;;;26.42;45.42;99234.38;2056043;28;20603;-51
2023/09/04 01:14:20;;;;;;;2.80;2.53;;;;;;;26.41;45.41;99227.28;2053722;28;21127;-51
2023/09/04 01:15:24;;;;;;;2.90;2.45;;;;;;;26.43;45.33;99230.59;2056097;28;20144;-53
2023/09/04 01:16:26;;;;;;;4.55;2.03;;;;;;;26.43;45.50;99231.41;2056093;28;20051;-50
2023/09/04 01:17:28;;;;;;;5.03;2.40;;;;;;;26.42;45.52;99235.22;2055834;28;20395;-53
2023/09/04 01:18:29;;;;;;;5.07;2.20;;;;;;;26.43;45.42;99225.97;2054125;28;20046;-52
2023/09/04 01:19:30;;;;;;;3.80;2.03;;;;;;;26.42;45.41;99226.22;2056810;28;20062;-49
2023/09/04 01:20:34;;;;;;;4.10;2.67;;;;;;;26.44;45.29;99235.81;2056978;28;20800;-51
2023/09/04 01:21:35;;;;;;;4.85;3.00;;;;;;;26.43;45.49;99228.69;2053156;28;20057;-51
2023/09/04 01:22:36;;;;;;;3.83;2.17;;;;;;;26.44;45.64;99227.63;2055191;28;20062;-53
2023/09/04 01:23:38;;;;;;;3.03;2.20;;;;;;;26.44;45.25;99227.63;2052577;28;20096;-50
2023/09/04 01:24:39;;;;;;;3.85;2.15;;;;;;;26.44;45.30;99232.22;2056329;28;20137;-52
2023/09/04 01:25:47;;;;;;;4.78;2.45;;;;;;;26.45;45.58;99239.34;2053334;28;20061;-53
2023/09/04 01:26:55;;;;;;;5.22;2.15;;;;;;;26.43;45.52;99236.84;2054076;28;20053;-49
2023/09/04 01:28:05;;;;;;;4.25;2.65;;;;;;;26.43;45.75;99239.56;2055468;28;20046;-50
2023/09/04 01:29:13;;;;;;;2.80;2.42;;;;;;;26.42;45.62;99240.66;2055846;28;20508;-51
2023/09/04 01:30:22;;;;;;;5.88;2.55;;;;;;;26.42;45.37;99229.75;2055865;28;20528;-52
2023/09/04 01:31:28;;;;;;;5.25;2.85;;;;;;;26.45;45.61;99239.34;2054086;28;20051;-51
2023/09/04 01:32:36;;;;;;;4.30;2.47;;;;;;;26.45;45.68;99236.63;2053870;28;20598;-50
2023/09/04 01:33:42;;;;;;;2.33;2.00;;;;;;;26.42;45.82;99232.47;2054776;28;20054;-50
2023/09/04 01:34:50;;;;;;;4.38;2.10;;;;;;;26.40;45.77;99231.91;2055278;28;20082;-49
2023/09/04 01:35:54;;;;;;;5.75;2.42;;;;;;;26.40;45.69;99231.06;2052018;28;20096;-49
2023/09/04 01:36:58;;;;;;;3.25;1.75;;;;;;;26.40;45.88;99229.16;2054871;28;20058;-50
2023/09/04 01:37:59;;;;;;;5.47;2.60;;;;;;;26.40;45.84;99233.78;2054318;28;20826;-53
2023/09/04 01:39:01;;;;;;;2.28;2.08;;;;;;;26.40;45.95;99231.06;2053920;28;20043;-52
2023/09/04 01:40:03;;;;;;;3.55;2.47;;;;;;;26.41;45.75;99233.56;2055057;28;20062;-51
2023/09/04 01:41:06;;;;;;;5.18;2.28;;;;;;;26.43;45.37;99228.69;2053715;28;20077;-49
2023/09/04 01:42:07;;;;;;;3.90;2.17;;;;;;;26.43;45.39;99222.44;2054791;28;20081;-51
2023/09/04 01:43:09;;;;;;;4.43;2.90;;;;;;;26.43;45.64;99225.16;2056561;28;20046;-50
2023/09/04 01:44:10;;;;;;;5.30;2.67;;;;;;;26.40;45.94;99226.44;2054570;28;20051;-50
2023/09/04 01:45:12;;;;;;;4.03;2.55;;;;;;;26.40;45.85;99220.19;2056781;28;20651;-50
2023/09/04 01:46:12;;;;;;;2.55;2.22;;;;;;;26.41;45.84;99222.69;2053808;28;20501;-53
2023/09/04 01:47:14;;;;;;;2.55;2.17;;;;;;;26.41;45.82;99214.53;2055842;28;20046;-50
2023/09/04 01:48:15;;;;;;;6.63;3.22;;;;;;;26.41;45.53;99222.69;2059474;28;20069;-50
2023/09/04 01:49:17;;;;;;;3.47;2.58;;;;;;;26.40;45.65;99212.84;2055774;28;20377;-50
2023/09/04 01:50:18;;;;;;;3.10;2.47;;;;;;;26.40;45.66;99217.47;2053295;28;20556;-50
2023/09/04 01:51:21;;;;;;;4.53;2.05;;;;;;;26.40;45.73;99220.19;2056458;28;20129;-52
2023/09/04 01:52:22;;;;;;;2.72;2.33;;;;;;;26.40;45.70;99210.13;2053954;28;20049;-52
2023/09/04 01:53:24;;;;;;;3.72;2.35;;;;;;;26.40;46.15;99206.59;2054862;28;20532;-53
2023/09/04 01:54:25;;;;;;;4.80;2.13;;;;;;;26.40;45.85;99212.84;2055161;28;20050;-52
2023/09/04 01:55:27;;;;;;;2.75;2.33;;;;;;;26.39;46.01;99213.94;2052051;28;20054;-53
2023/09/04 01:56:28;;;;;;;6.57;2.60;;;;;;;26.39;46.09;99207.66;2055406;28;20586;-51
2023/09/04 01:57:29;;;;;;;4.13;2.75;;;;;;;26.41;46.16;99206.38;2053187;28;20104;-52
2023/09/04 01:58:30;;;;;;;1.83;1.70;;;;;;;26.39;46.22;99210.41;2054663;28;20061;-52
2023/09/04 01:59:34;;;;;;;3.58;2.58;;;;;;;26.38;46.16;99206.81;2053881;28;20110;-50
2023/09/04 02:00:35;;;;;;;3.83;2.58;;;;;;;26.38;45.90;99211.44;2053916;28;20137;-51
2023/09/04 02:01:37;;;;;;;4.43;2.20;;;;;;;26.41;46.02;99206.38;2053993;28;20068;-53
2023/09/04 02:02:38;;;;;;;2.70;2.47;;;;;;;26.39;45.81;99204.94;2055217;28;20793;-51
2023/09/04 02:03:40;;;;;;;3.03;2.17;;;;;;;26.39;46.09;99207.66;2054464;28;20069;-50
2023/09/04 02:04:40;;;;;;;4.00;2.00;;;;;;;26.39;45.95;99200.34;2056259;28;20382;-49
2023/09/04 02:05:43;;;;;;;3.55;2.65;;;;;;;26.39;45.74;99197.63;2052188;28;21002;-52
2023/09/04 02:06:45;;;;;;;2.80;2.22;;;;;;;26.40;45.68;99199.25;2052268;28;20158;-52
2023/09/04 02:07:47;;;;;;;5.00;2.20;;;;;;;26.38;45.67;99201.38;2053468;28;20137;-52
2023/09/04 02:08:48;;;;;;;5.05;2.65;;;;;;;26.40;45.91;99198.44;2055247;28;20050;-51
2023/09/04 02:09:50;;;;;;;3.42;2.38;;;;;;;26.38;45.63;99195.94;2053526;28;20509;-49
2023/09/04 02:10:51;;;;;;;3.20;2.47;;;;;;;26.35;46.19;99191.00;2053980;28;20046;-51
2023/09/04 02:11:53;;;;;;;3.45;2.65;;;;;;;26.36;46.19;99197.28;2053976;28;20332;-54
2023/09/04 02:12:55;;;;;;;3.38;1.95;;;;;;;26.38;45.79;99190.50;2054137;28;20057;-51
2023/09/04 02:13:56;;;;;;;2.40;2.15;;;;;;;26.36;46.13;99197.28;2053251;28;20046;-53
2023/09/04 02:14:58;;;;;;;4.70;2.40;;;;;;;26.38;45.94;99189.69;2056747;28;20630;-53
2023/09/04 02:15:59;;;;;;;6.72;3.00;;;;;;;26.36;46.10;99192.66;2054223;28;20500;-53
2023/09/04 02:17:00;;;;;;;5.68;2.35;;;;;;;26.36;45.93;99194.56;2055484;28;20078;-53
2023/09/04 02:18:01;;;;;;;5.85;2.67;;;;;;;26.37;45.82;99188.84;2054219;28;20050;-53
2023/09/04 02:19:03;;;;;;;3.35;2.33;;;;;;;26.37;46.04;99182.59;2053778;28;20055;-52
2023/09/04 02:20:06;;;;;;;5.40;2.58;;;;;;;26.37;46.05;99185.31;2057240;28;20050;-53
2023/09/04 02:21:08;;;;;;;5.07;2.28;;;;;;;26.33;46.00;99182.28;2055493;28;20479;-51
2023/09/04 02:22:10;;;;;;;3.08;2.63;;;;;;;26.38;45.80;99184.25;2054104;28;20255;-52
2023/09/04 02:23:12;;;;;;;5.00;2.65;;;;;;;26.37;46.16;99183.41;2054831;28;20062;-51
2023/09/04 02:24:13;;;;;;;3.33;2.15;;;;;;;26.38;46.04;99189.69;2055582;28;20576;-52
2023/09/04 02:25:15;;;;;;;3.42;2.30;;;;;;;26.39;46.30;99181.28;2054516;28;20345;-52
2023/09/04 02:26:16;;;;;;;4.47;3.00;;;;;;;26.38;45.97;99189.69;2054227;28;20058;-52
2023/09/04 02:27:17;;;;;;;4.85;2.13;;;;;;;26.35;46.29;99188.28;2055630;28;20209;-51
2023/09/04 02:28:18;;;;;;;4.15;2.35;;;;;;;26.35;45.97;99188.28;2053126;28;20506;-49
2023/09/04 02:29:20;;;;;;;5.47;2.70;;;;;;;26.37;46.02;99180.69;2053491;28;20054;-53
2023/09/04 02:30:21;;;;;;;3.20;2.25;;;;;;;26.32;46.43;99179.78;2051155;28;20050;-52
2023/09/04 02:31:23;;;;;;;4.53;2.50;;;;;;;26.35;46.38;99182.81;2053473;28;20550;-56
2023/09/04 02:32:23;;;;;;;2.70;2.13;;;;;;;26.37;45.94;99185.31;2055102;28;20042;-50
2023/09/04 02:33:25;;;;;;;4.57;2.80;;;;;;;26.36;46.31;99181.78;2054518;28;20417;-50
2023/09/04 02:34:26;;;;;;;4.00;2.42;;;;;;;26.36;45.95;99181.78;2054833;28;20085;-50
2023/09/04 02:35:28;;;;;;;4.88;2.55;;;;;;;26.35;46.47;99180.09;2055139;28;20050;-52
2023/09/04 02:36:29;;;;;;;2.72;2.35;;;;;;;26.34;46.47;99173.03;2055371;28;20112;-51
2023/09/04 02:37:32;;;;;;;3.88;2.35;;;;;;;26.34;46.55;99175.75;2055771;28;20508;-53
2023/09/04 02:38:33;;;;;;;3.67;2.72;;;;;;;26.36;46.18;99173.63;2054112;28;20051;-49
2023/09/04 02:39:36;;;;;;;3.97;2.42;;;;;;;26.35;46.42;99171.94;2056153;28;20247;-50
2023/09/04 02:40:37;;;;;;;3.78;2.88;;;;;;;26.32;46.52;99174.34;2055288;28;20133;-50
2023/09/04 02:41:38;;;;;;;4.00;2.72;;;;;;;26.28;46.44;99172.09;2055177;28;20398;-51
2023/09/04 02:42:39;;;;;;;4.15;2.13;;;;;;;26.29;46.67;99168.31;2054538;28;20076;-52
2023/09/04 02:43:41;;;;;;;4.88;3.15;;;;;;;26.32;46.49;99174.34;2053159;28;20039;-52
2023/09/04 02:44:42;;;;;;;4.78;2.55;;;;;;;26.33;46.16;99175.97;2055983;28;20137;-53
2023/09/04 02:45:46;;;;;;;4.50;2.42;;;;;;;26.34;46.41;99175.75;2053989;28;20046;-50
2023/09/04 02:46:46;;;;;;;5.32;2.70;;;;;;;26.34;46.62;99172.22;2052248;28;20055;-49
2023/09/04 02:47:49;;;;;;;4.20;2.95;;;;;;;26.34;46.61;99174.94;2056886;28;20042;-49
2023/09/04 02:48:49;;;;;;;6.00;3.10;;;;;;;26.35;46.38;99165.69;2053562;28;20050;-52
2023/09/04 02:49:51;;;;;;;4.43;2.63;;;;;;;26.33;46.41;99167.81;2051431;28;20074;-50
2023/09/04 02:50:57;;;;;;;4.85;2.88;;;;;;;26.34;46.21;99167.59;2055951;28;20042;-51
2023/09/04 02:51:59;;;;;;;8.43;3.10;;;;;;;26.31;46.72;99165.34;2054184;28;20052;-51
2023/09/04 02:53:01;;;;;;;6.20;3.47;;;;;;;26.29;46.29;99159.31;2055881;28;20053;-51
2023/09/04 02:54:03;;;;;;;4.28;2.58;;;;;;;26.27;46.32;99156.00;2057012;28;20054;-50
2023/09/04 02:55:05;;;;;;;6.10;2.60;;;;;;;26.31;46.41;99162.63;2053182;28;20420;-51
2023/09/04 02:56:06;;;;;;;5.10;2.65;;;;;;;26.32;46.45;99163.47;2055696;28;20467;-50
2023/09/04 02:57:07;;;;;;;3.65;2.72;;;;;;;26.29;46.82;99162.03;2054771;28;20085;-51
2023/09/04 02:58:09;;;;;;;3.15;2.50;;;;;;;26.28;46.75;99169.38;2054563;28;20416;-50
2023/09/04 02:59:10;;;;;;;3.92;2.95;;;;;;;26.29;46.45;99165.59;2055280;28;20069;-50
2023/09/04 03:00:13;;;;;;;3.85;3.42;;;;;;;26.30;46.32;99166.44;2052998;28;20074;-52
2023/09/04 03:01:16;;;;;;;5.15;3.00;;;;;;;26.34;46.33;99162.16;2054693;28;20046;-50
2023/09/04 03:02:17;;;;;;;5.05;2.35;;;;;;;26.29;46.68;99160.16;2056026;28;20050;-52
2023/09/04 03:03:19;;;;;;;3.25;2.65;;;;;;;26.30;46.50;99163.72;2053580;28;20887;-51
2023/09/04 03:04:21;;;;;;;3.10;2.25;;;;;;;26.29;46.47;99154.72;2057903;28;20042;-51
2023/09/04 03:05:25;;;;;;;2.78;2.55;;;;;;;26.29;46.67;99165.59;2053301;28;20503;-53
2023/09/04 03:06:27;;;;;;;5.80;3.50;;;;;;;26.29;46.72;99153.88;2050937;28;20046;-49
2023/09/04 03:07:28;;;;;;;3.60;2.67;;;;;;;26.29;46.83;99154.72;2054813;28;20047;-51
2023/09/04 03:08:31;;;;;;;5.25;3.35;;;;;;;26.32;46.46;99163.47;2054646;28;20302;-50
2023/09/04 03:09:32;;;;;;;3.80;3.17;;;;;;;26.28;46.46;99155.78;2054990;28;20066;-50
2023/09/04 03:10:35;;;;;;;3.33;2.10;;;;;;;26.28;46.58;99153.06;2055419;28;20043;-50
2023/09/04 03:11:36;;;;;;;3.78;2.60;;;;;;;26.26;46.74;99149.75;2054796;28;20560;-50
2023/09/04 03:12:38;;;;;;;3.70;2.80;;;;;;;26.26;46.40;99149.75;2056266;28;20061;-49
2023/09/04 03:13:40;;;;;;;3.83;2.20;;;;;;;26.27;46.74;99151.44;2055964;28;20386;-52
2023/09/04 03:14:42;;;;;;;3.55;2.88;;;;;;;26.31;46.71;99159.91;2054899;28;20133;-49
2023/09/04 03:15:42;;;;;;;3.17;2.38;;;;;;;26.28;46.93;99154.97;2053647;28;20050;-51
2023/09/04 03:16:44;;;;;;;4.82;2.60;;;;;;;26.29;46.68;99148.44;2054462;28;21300;-51
2023/09/04 03:17:46;;;;;;;3.42;2.45;;;;;;;26.29;46.90;99151.16;2055168;28;20050;-49
2023/09/04 03:18:47;;;;;;;7.00;2.85;;;;;;;26.27;46.56;99156.00;2054606;28;20053;-50
2023/09/04 03:19:48;;;;;;;5.97;3.13;;;;;;;26.25;46.87;99155.44;2053973;28;20527;-52
2023/09/04 03:20:50;;;;;;;2.40;2.20;;;;;;;26.26;46.93;99154.38;2053929;28;20058;-53
2023/09/04 03:21:51;;;;;;;6.03;2.97;;;;;;;26.25;46.57;99150.00;2055439;28;20096;-51
2023/09/04 03:22:53;;;;;;;3.25;2.25;;;;;;;26.26;46.68;99147.03;2052351;28;20046;-52
2023/09/04 03:23:55;;;;;;;4.65;2.83;;;;;;;26.28;46.79;99154.97;2056586;28;20057;-53
2023/09/04 03:24:57;;;;;;;3.15;2.47;;;;;;;26.28;46.97;99147.63;2054732;28;20042;-52
2023/09/04 03:25:58;;;;;;;3.00;2.35;;;;;;;26.27;46.69;99148.72;2056004;28;20053;-50
2023/09/04 03:27:00;;;;;;;4.35;2.75;;;;;;;26.25;46.78;99147.28;2054331;28;22244;-53
2023/09/04 03:28:01;;;;;;;4.47;2.50;;;;;;;26.24;47.04;99146.47;2055400;28;20053;-53
2023/09/04 03:29:02;;;;;;;3.97;2.42;;;;;;;26.22;46.97;99145.88;2055190;28;21885;-51
2023/09/04 03:30:04;;;;;;;2.50;2.25;;;;;;;26.24;47.01;99140.19;2057849;28;21129;-50
2023/09/04 03:31:12;;;;;;;3.45;2.50;;;;;;;26.26;46.64;99140.78;2055699;28;20050;-50
2023/09/04 03:32:13;;;;;;;3.70;3.03;;;;;;;26.24;47.05;99142.91;2055443;28;20531;-49
2023/09/04 03:33:15;;;;;;;3.83;3.13;;;;;;;26.25;46.65;99141.84;2056100;28;20053;-51
2023/09/04 03:34:16;;;;;;;3.22;2.78;;;;;;;26.24;46.96;99142.91;2054964;28;20131;-54
2023/09/04 03:35:18;;;;;;;3.65;2.55;;;;;;;26.23;46.66;99139.38;2053544;28;20067;-48
2023/09/04 03:36:18;;;;;;;4.00;2.67;;;;;;;26.24;47.18;99137.47;2057234;28;20050;-50
2023/09/04 03:37:20;;;;;;;2.63;2.42;;;;;;;26.25;46.67;99141.84;2053900;28;20046;-51
2023/09/04 03:38:21;;;;;;;6.40;2.72;;;;;;;26.23;46.92;99133.94;2055954;28;20050;-49
2023/09/04 03:39:25;;;;;;;3.80;2.67;;;;;;;26.26;46.70;99135.34;2055559;28;20137;-53
2023/09/04 03:40:29;;;;;;;4.88;2.63;;;;;;;26.24;47.01;99129.31;2054605;28;20113;-51
2023/09/04 03:41:31;;;;;;;4.63;2.00;;;;;;;26.22;46.87;99139.63;2052794;28;20829;-50
2023/09/04 03:42:32;;;;;;;2.95;2.33;;;;;;;26.23;47.09;99133.09;2053227;28;20085;-53
2023/09/04 03:43:35;;;;;;;8.80;2.85;;;;;;;26.23;46.99;99133.94;2056903;28;20077;-50
2023/09/04 03:44:36;;;;;;;4.57;2.40;;;;;;;26.25;46.95;99133.69;2057095;28;20413;-49
2023/09/04 03:45:38;;;;;;;5.40;3.00;;;;;;;26.27;47.10;99132.41;2056145;28;20046;-51
2023/09/04 03:46:39;;;;;;;3.67;2.28;;;;;;;26.27;46.95;99137.84;2053399;28;20650;-53
2023/09/04 03:47:41;;;;;;;2.08;1.88;;;;;;;26.25;46.70;99131.81;2056107;28;20085;-53
2023/09/04 03:48:42;;;;;;;7.00;2.88;;;;;;;26.25;46.73;99133.69;2055222;28;20054;-49
2023/09/04 03:49:44;;;;;;;3.33;2.55;;;;;;;26.24;46.73;99130.16;2055458;28;21224;-52
2023/09/04 03:50:45;;;;;;;2.83;2.10;;;;;;;26.25;46.95;99139.13;2056575;28;20053;-49
2023/09/04 03:51:47;;;;;;;7.85;3.25;;;;;;;26.25;46.70;99133.69;2055281;28;20626;-50
2023/09/04 03:52:47;;;;;;;3.15;2.30;;;;;;;26.22;46.64;99129.56;2054217;28;20046;-51
2023/09/04 03:53:49;;;;;;;5.25;2.53;;;;;;;26.25;46.87;99141.84;2053021;28;20042;-50
2023/09/04 03:54:52;;;;;;;3.08;2.65;;;;;;;26.26;47.15;99140.78;2055670;28;20042;-49
2023/09/04 03:55:53;;;;;;;4.63;2.67;;;;;;;26.23;46.83;99138.53;2057237;28;20141;-48
2023/09/04 03:56:54;;;;;;;3.72;2.83;;;;;;;26.22;46.82;99139.63;2053293;28;20053;-51
2023/09/04 03:57:56;;;;;;;2.97;2.30;;;;;;;26.19;47.17;99137.38;2055088;28;20812;-51
2023/09/04 03:58:57;;;;;;;2.63;2.35;;;;;;;26.20;46.88;99144.47;2056452;28;20607;-51
2023/09/04 03:59:59;;;;;;;6.90;2.60;;;;;;;26.23;47.26;99141.25;2055857;28;20137;-49
2023/09/04 04:01:00;;;;;;;4.82;2.80;;;;;;;26.19;47.32;99140.94;2055180;28;20142;-49
2023/09/04 04:02:02;;;;;;;3.78;3.15;;;;;;;26.18;47.03;99147.41;2056783;28;20054;-53
2023/09/04 04:03:04;;;;;;;3.75;2.47;;;;;;;26.20;47.04;99149.91;2055412;28;20765;-50
2023/09/04 04:04:06;;;;;;;3.75;2.90;;;;;;;26.22;47.29;99151.31;2054487;28;20043;-52
2023/09/04 04:05:08;;;;;;;5.63;2.35;;;;;;;26.22;47.15;99150.50;2055038;28;20559;-51
2023/09/04 04:06:13;;;;;;;3.50;2.60;;;;;;;26.19;46.84;99148.25;2053966;28;20141;-52
2023/09/04 04:07:14;;;;;;;3.80;3.03;;;;;;;26.21;46.83;99141.50;2054627;28;20050;-51
2023/09/04 04:08:16;;;;;;;3.85;2.33;;;;;;;26.22;46.82;99147.78;2052932;28;20043;-49
2023/09/04 04:09:21;;;;;;;4.07;3.00;;;;;;;26.23;47.25;99144.81;2054185;28;20050;-50
2023/09/04 04:10:24;;;;;;;3.30;2.53;;;;;;;26.23;47.23;99146.69;2053691;28;20199;-55
2023/09/04 04:11:27;;;;;;;4.22;2.92;;;;;;;26.23;47.18;99146.69;2054252;28;20520;-50
2023/09/04 04:12:28;;;;;;;6.13;2.60;;;;;;;26.21;47.04;99155.09;2054757;28;20042;-50
2023/09/04 04:13:29;;;;;;;3.08;2.47;;;;;;;26.21;47.30;99146.09;2057114;28;20054;-53
2023/09/04 04:14:30;;;;;;;4.70;3.00;;;;;;;26.20;47.38;99148.00;2055190;28;20051;-50
2023/09/04 04:15:31;;;;;;;3.70;2.38;;;;;;;26.23;46.80;99152.13;2055446;28;20146;-49
2023/09/04 04:16:34;;;;;;;4.95;2.85;;;;;;;26.23;47.17;99149.41;2055123;28;20061;-50
2023/09/04 04:17:36;;;;;;;2.47;2.28;;;;;;;26.23;47.28;99146.69;2055884;28;20046;-50
2023/09/04 04:18:38;;;;;;;4.15;2.63;;;;;;;26.22;47.34;99156.75;2049205;28;20047;-48
2023/09/04 04:19:39;;;;;;;3.47;2.83;;;;;;;26.25;47.15;99158.16;2054414;28;20424;-49
2023/09/04 04:20:41;;;;;;;3.97;2.42;;;;;;;26.24;47.32;99159.22;2057240;28;20057;-49
2023/09/04 04:21:41;;;;;;;7.22;3.13;;;;;;;26.25;47.28;99163.59;2056758;28;20050;-50
2023/09/04 04:22:43;;;;;;;3.30;2.63;;;;;;;26.24;47.14;99159.22;2056630;28;20054;-49
2023/09/04 04:23:44;;;;;;;3.40;2.28;;;;;;;26.21;46.92;99165.16;2054852;28;20508;-50
2023/09/04 04:24:46;;;;;;;5.13;2.75;;;;;;;26.21;47.04;99162.41;2055473;28;20046;-48
2023/09/04 04:25:50;;;;;;;4.00;2.83;;;;;;;26.22;47.37;99155.94;2054937;28;20046;-49
2023/09/04 04:26:52;;;;;;;3.08;2.63;;;;;;;26.22;47.45;99169.53;2055050;28;20108;-49
2023/09/04 04:27:53;;;;;;;3.20;2.80;;;;;;;26.20;47.10;99166.22;2051226;28;20133;-50
2023/09/04 04:28:55;;;;;;;4.28;2.30;;;;;;;26.20;47.35;99169.75;2054278;28;20042;-50
2023/09/04 04:29:55;;;;;;;3.50;2.97;;;;;;;26.19;47.32;99167.31;2053753;28;20089;-49
2023/09/04 04:31:01;;;;;;;3.92;2.75;;;;;;;26.18;47.28;99162.91;2055625;28;20151;-50
2023/09/04 04:32:02;;;;;;;4.32;2.78;;;;;;;26.20;47.09;99166.22;2053214;28;20050;-51
2023/09/04 04:33:04;;;;;;;8.43;2.90;;;;;;;26.21;47.12;99165.16;2054824;28;20054;-49
2023/09/04 04:34:05;;;;;;;3.50;2.53;;;;;;;26.19;47.12;99168.13;2054254;28;20505;-49
2023/09/04 04:35:08;;;;;;;4.05;2.22;;;;;;;26.23;47.48;99172.00;2057487;28;20181;-50
2023/09/04 04:36:09;;;;;;;2.88;2.63;;;;;;;26.22;47.36;99170.34;2056204;28;20174;-53
2023/09/04 04:37:10;;;;;;;3.15;2.33;;;;;;;26.21;47.18;99174.13;2054063;28;20074;-51
2023/09/04 04:38:11;;;;;;;2.70;2.50;;;;;;;26.20;47.16;99169.75;2053022;28;20039;-52
2023/09/04 04:39:13;;;;;;;3.25;2.92;;;;;;;26.24;47.46;99167.38;2053323;28;20319;-53
2023/09/04 04:40:19;;;;;;;3.30;2.80;;;;;;;26.20;47.69;99171.66;2053978;28;20050;-49
2023/09/04 04:41:23;;;;;;;5.55;3.40;;;;;;;26.19;47.42;99168.13;2053165;28;20043;-50
2023/09/04 04:42:24;;;;;;;4.95;3.47;;;;;;;26.21;47.38;99173.28;2053775;28;20495;-50
2023/09/04 04:43:26;;;;;;;4.93;2.85;;;;;;;26.19;47.23;99173.56;2055054;28;20050;-51
2023/09/04 04:44:27;;;;;;;3.83;2.53;;;;;;;26.18;47.27;99168.34;2053854;28;20047;-50
2023/09/04 04:45:28;;;;;;;3.72;2.38;;;;;;;26.17;47.86;99169.44;2053549;28;20050;-51
2023/09/04 04:46:29;;;;;;;3.10;2.53;;;;;;;26.15;47.30;99168.81;2054911;28;20133;-54
2023/09/04 04:47:31;;;;;;;3.28;2.90;;;;;;;26.15;47.74;99166.94;2054975;28;21357;-51
2023/09/04 04:48:32;;;;;;;4.20;2.90;;;;;;;26.16;47.53;99170.47;2055143;28;20062;-52
2023/09/04 04:49:35;;;;;;;2.65;2.20;;;;;;;26.18;47.55;99179.22;2056708;28;20431;-53
2023/09/04 04:50:36;;;;;;;6.25;2.75;;;;;;;26.19;47.54;99178.16;2057515;28;20057;-54
2023/09/04 04:51:37;;;;;;;3.90;2.90;;;;;;;26.18;47.33;99173.78;2054802;28;20305;-52
2023/09/04 04:52:38;;;;;;;3.40;2.78;;;;;;;26.19;47.63;99183.63;2055296;28;20054;-49